Time;durP1;ratioP1;P1;durP2;ratioP2;P2;SDS_P1;SDS_P2;PMS_P1;PMS_P2;Temp;Humidity;BMP_temperature;BMP_pressure;BME280_temperature;BME280_humidity;BME280_pressure;Samples;Min_cycle;Max_cycle;Signal;HPM_P1;HPM_P2
2021/06/10 00:02:04;;;;;;;6.32;4.63;;;19.00;90.40;;;;;;4998117;28;20034;-84
2021/06/10 00:04:31;;;;;;;6.60;4.63;;;18.90;90.30;;;;;;5015705;28;20552;-83
2021/06/10 00:06:57;;;;;;;7.20;4.53;;;18.90;90.50;;;;;;5009285;28;20029;-82
2021/06/10 00:09:22;;;;;;;4.82;4.32;;;18.90;90.20;;;;;;5016119;28;20395;-81
2021/06/10 00:11:49;;;;;;;6.80;4.80;;;19.00;90.10;;;;;;5015243;28;20021;-82
2021/06/10 00:14:14;;;;;;;7.32;4.65;;;19.00;90.00;;;;;;5015677;28;20061;-81
2021/06/10 00:16:40;;;;;;;5.30;4.32;;;19.00;90.00;;;;;;5010606;28;20034;-82
2021/06/10 00:19:07;;;;;;;5.47;4.50;;;19.00;89.90;;;;;;5018255;28;20038;-81
2021/06/10 00:21:33;;;;;;;5.53;4.07;;;19.00;89.70;;;;;;5017820;28;20047;-82
2021/06/10 00:23:59;;;;;;;6.75;4.45;;;19.00;89.30;;;;;;5034413;28;20109;-81
2021/06/10 00:26:24;;;;;;;5.70;4.28;;;19.00;88.90;;;;;;5003344;28;20050;-82
2021/06/10 00:28:50;;;;;;;5.43;4.45;;;19.00;89.10;;;;;;4990110;28;20069;-82
2021/06/10 00:31:16;;;;;;;5.30;4.35;;;19.00;88.80;;;;;;5000927;28;20026;-82
2021/06/10 00:33:41;;;;;;;7.47;4.10;;;19.10;88.70;;;;;;4997721;28;20030;-82
2021/06/10 00:36:07;;;;;;;5.00;4.05;;;19.00;88.70;;;;;;5014089;28;20037;-82
2021/06/10 00:38:33;;;;;;;9.52;4.72;;;19.00;88.50;;;;;;5034842;28;20036;-81
2021/06/10 00:40:58;;;;;;;5.60;4.20;;;19.00;88.80;;;;;;5017083;28;20057;-81
2021/06/10 00:43:24;;;;;;;6.95;4.47;;;19.00;88.70;;;;;;5017024;28;20036;-83
2021/06/10 00:45:49;;;;;;;5.15;4.05;;;19.00;88.60;;;;;;5008312;28;20035;-81
2021/06/10 00:48:15;;;;;;;6.18;4.13;;;18.90;88.60;;;;;;4997769;28;20026;-81
2021/06/10 00:50:44;;;;;;;5.80;4.32;;;18.80;88.90;;;;;;5014659;28;20386;-82
2021/06/10 00:53:20;;;;;;;5.35;3.85;;;18.80;89.80;;;;;;4997272;28;20116;-81
2021/06/10 00:55:47;;;;;;;5.70;4.10;;;18.80;89.30;;;;;;4998045;28;20022;-81
2021/06/10 00:58:12;;;;;;;8.10;4.32;;;18.70;89.60;;;;;;5031622;28;20029;-80
2021/06/10 01:00:38;;;;;;;6.40;4.47;;;18.70;89.90;;;;;;4997781;28;20025;-81
2021/06/10 01:03:04;;;;;;;7.13;4.72;;;18.60;90.00;;;;;;4997031;28;20033;-81
2021/06/10 01:05:30;;;;;;;6.03;4.90;;;18.70;89.90;;;;;;5010981;28;20049;-81
2021/06/10 01:08:23;;;;;;;5.85;4.60;;;18.70;89.70;;;;;;4997506;28;20049;-81
2021/06/10 01:10:57;;;;;;;7.18;4.93;;;18.60;89.70;;;;;;5016709;28;20030;-81
2021/06/10 01:14:00;;;;;;;5.93;4.75;;;18.60;89.90;;;;;;5016936;28;20029;-81
2021/06/10 01:16:29;;;;;;;6.57;4.60;;;18.60;90.00;;;;;;5029696;28;20025;-81
2021/06/10 01:18:58;;;;;;;4.95;4.22;;;18.60;90.00;;;;;;5032953;28;20474;-81
2021/06/10 01:21:24;;;;;;;6.55;4.40;;;18.60;90.00;;;;;;5033200;28;20121;-82
2021/06/10 01:23:50;;;;;;;6.45;4.40;;;18.60;90.00;;;;;;5032496;28;20116;-81
2021/06/10 01:26:44;;;;;;;6.93;4.65;;;18.60;90.10;;;;;;5033198;28;20446;-82
2021/06/10 01:29:16;;;;;;;5.88;4.18;;;18.60;90.20;;;;;;5026690;28;20021;-82
2021/06/10 01:31:41;;;;;;;;;;;18.50;90.10;;;;;;5016085;28;20021;-84
2021/06/10 01:34:09;;;;;;;7.97;4.00;;;18.50;90.00;;;;;;5049654;28;19905;-82
2021/06/10 01:36:42;;;;;;;7.00;3.92;;;18.50;89.80;;;;;;5034284;28;20088;-82
2021/06/10 01:39:10;;;;;;;7.18;4.50;;;18.50;89.80;;;;;;5033974;28;20029;-82
2021/06/10 01:41:38;;;;;;;5.53;4.05;;;18.50;89.70;;;;;;5016003;28;20034;-83
2021/06/10 01:44:06;;;;;;;5.00;4.00;;;18.50;89.50;;;;;;5015929;28;20032;-82
2021/06/10 01:46:32;;;;;;;5.07;4.03;;;18.40;89.70;;;;;;5016467;28;20033;-82
2021/06/10 01:49:00;;;;;;;6.32;3.92;;;18.40;89.80;;;;;;5015746;28;20382;-81
2021/06/10 01:51:29;;;;;;;7.40;4.30;;;18.40;89.80;;;;;;5016189;28;20470;-83
2021/06/10 01:53:58;;;;;;;6.03;4.40;;;18.30;89.70;;;;;;5015643;28;20487;-81
2021/06/10 01:56:25;;;;;;;6.72;3.80;;;18.30;89.90;;;;;;5016210;28;20071;-81
2021/06/10 01:58:52;;;;;;;7.53;3.92;;;18.40;89.60;;;;;;5032886;28;20021;-81
2021/06/10 02:01:20;;;;;;;5.45;4.22;;;18.40;89.60;;;;;;5033160;28;20033;-81
2021/06/10 02:03:48;;;;;;;8.13;4.20;;;18.40;89.40;;;;;;5013544;28;20029;-90
2021/06/10 02:06:15;;;;;;;7.00;4.35;;;18.30;89.40;;;;;;5015824;28;20029;-81
2021/06/10 02:08:44;;;;;;;10.25;4.55;;;18.30;89.80;;;;;;5025351;28;20494;-81
2021/06/10 02:11:12;;;;;;;8.63;4.45;;;18.30;89.50;;;;;;5033852;28;20038;-82
2021/06/10 02:13:38;;;;;;;8.82;4.63;;;18.30;89.60;;;;;;5032565;28;20055;-82
2021/06/10 02:16:07;;;;;;;7.72;4.18;;;18.20;89.80;;;;;;5031879;28;20036;-81
2021/06/10 02:18:34;;;;;;;8.13;4.10;;;18.20;89.50;;;;;;5032668;28;20053;-82
2021/06/10 02:21:06;;;;;;;8.55;4.10;;;18.20;89.40;;;;;;5032420;28;20104;-82
2021/06/10 02:23:39;;;;;;;6.35;4.13;;;18.20;89.20;;;;;;5032718;28;20025;-83
2021/06/10 02:26:05;;;;;;;12.93;4.55;;;18.20;89.00;;;;;;5033085;28;20029;-82
2021/06/10 02:28:32;;;;;;;7.05;4.35;;;18.20;89.20;;;;;;5033569;28;20030;-80
2021/06/10 02:30:59;;;;;;;7.38;4.35;;;18.20;89.30;;;;;;5033342;28;20033;-80
2021/06/10 02:33:25;;;;;;;6.00;4.32;;;18.10;89.70;;;;;;5032030;28;20037;-81
2021/06/10 02:35:51;;;;;;;7.50;4.60;;;18.10;90.00;;;;;;5032704;28;20056;-80
2021/06/10 02:38:24;;;;;;;8.55;4.45;;;18.10;89.90;;;;;;5032013;28;20462;-81
2021/06/10 02:40:51;;;;;;;9.02;4.85;;;18.00;90.00;;;;;;5031764;28;20470;-81
2021/06/10 02:43:17;;;;;;;10.57;4.35;;;18.10;90.10;;;;;;5032254;28;20060;-81
2021/06/10 02:45:45;;;;;;;9.98;4.55;;;18.00;90.30;;;;;;5032473;28;20053;-80
2021/06/10 02:48:12;;;;;;;7.80;5.10;;;17.90;90.50;;;;;;5032105;28;20030;-80
2021/06/10 02:50:40;;;;;;;7.72;4.78;;;17.90;90.70;;;;;;5032662;28;20032;-79
2021/06/10 02:53:08;;;;;;;11.35;5.22;;;17.90;90.70;;;;;;5031700;28;20033;-80
2021/06/10 02:55:36;;;;;;;7.22;4.60;;;18.00;90.60;;;;;;5032400;28;20128;-80
2021/06/10 02:58:03;;;;;;;9.23;5.03;;;18.00;90.60;;;;;;5032895;28;20021;-81
2021/06/10 03:00:32;;;;;;;7.63;5.15;;;17.90;90.70;;;;;;5033414;28;20026;-81
2021/06/10 03:03:00;;;;;;;8.32;4.43;;;17.90;90.60;;;;;;5036578;28;20037;-81
2021/06/10 03:05:28;;;;;;;8.85;4.47;;;17.90;90.60;;;;;;5035858;28;20025;-81
2021/06/10 03:07:54;;;;;;;8.18;4.95;;;17.90;91.00;;;;;;5034957;28;20056;-81
2021/06/10 03:10:24;;;;;;;7.07;4.70;;;17.90;90.60;;;;;;5035346;28;20029;-81
2021/06/10 03:12:50;;;;;;;6.80;4.70;;;17.90;90.50;;;;;;5036456;28;20086;-88
2021/06/10 03:15:16;;;;;;;6.88;4.78;;;17.90;90.60;;;;;;5035301;28;20116;-81
2021/06/10 03:17:42;;;;;;;7.18;5.05;;;17.80;90.80;;;;;;5036173;28;20171;-81
2021/06/10 03:20:08;;;;;;;8.23;5.05;;;17.80;90.90;;;;;;5035442;28;20017;-81
2021/06/10 03:22:35;;;;;;;7.53;5.40;;;17.80;90.90;;;;;;5035463;28;20083;-82
2021/06/10 03:25:08;;;;;;;9.50;4.95;;;17.80;91.00;;;;;;5034440;28;20040;-82
2021/06/10 03:27:34;;;;;;;7.18;5.35;;;17.80;91.10;;;;;;5035805;28;20064;-82
2021/06/10 03:30:01;;;;;;;9.00;5.30;;;17.80;91.10;;;;;;5029649;28;20026;-82
2021/06/10 03:32:28;;;;;;;7.55;5.57;;;17.70;91.10;;;;;;5019023;28;20393;-81
2021/06/10 03:34:55;;;;;;;7.68;5.68;;;17.70;91.30;;;;;;5017671;28;20140;-82
2021/06/10 03:37:22;;;;;;;9.43;5.45;;;17.70;91.40;;;;;;5035727;28;20025;-81
2021/06/10 03:39:50;;;;;;;7.82;5.68;;;17.70;91.30;;;;;;5035619;28;20029;-89
2021/06/10 03:42:18;;;;;;;8.57;5.43;;;17.70;91.30;;;;;;5035667;28;20033;-81
2021/06/10 03:44:45;;;;;;;8.52;5.80;;;17.70;91.40;;;;;;5036123;28;20120;-80
2021/06/10 03:47:15;;;;;;;10.25;6.10;;;17.70;91.40;;;;;;5035794;28;20258;-80
2021/06/10 03:49:41;;;;;;;9.32;6.22;;;17.70;91.50;;;;;;5019188;28;20087;-81
2021/06/10 03:52:07;;;;;;;9.02;6.47;;;17.70;91.60;;;;;;5022040;28;20029;-80
2021/06/10 03:54:33;;;;;;;9.15;6.18;;;17.70;91.70;;;;;;5056156;28;20450;-82
2021/06/10 03:56:59;;;;;;;12.73;6.75;;;17.60;91.60;;;;;;5037664;28;20075;-81
2021/06/10 03:59:25;;;;;;;10.25;6.30;;;17.60;91.70;;;;;;5022136;28;20022;-81
2021/06/10 04:01:50;;;;;;;8.25;5.43;;;17.70;91.70;;;;;;5013818;28;20029;-82
2021/06/10 04:04:18;;;;;;;7.82;5.32;;;17.70;91.80;;;;;;5017712;28;20048;-80
2021/06/10 04:06:44;;;;;;;8.77;5.85;;;17.60;91.90;;;;;;5018079;28;20033;-79
2021/06/10 04:09:09;;;;;;;9.18;6.00;;;17.60;91.90;;;;;;5000549;28;20058;-80
2021/06/10 04:11:37;;;;;;;10.00;5.70;;;17.60;91.90;;;;;;5014758;28;20034;-81
2021/06/10 04:14:03;;;;;;;10.68;5.80;;;17.60;91.90;;;;;;4998220;28;20370;-82
2021/06/10 04:16:29;;;;;;;8.00;5.80;;;17.60;91.90;;;;;;4998277;28;20030;-82
2021/06/10 04:18:55;;;;;;;10.30;5.72;;;17.60;91.80;;;;;;4998118;28;20121;-88
2021/06/10 04:21:21;;;;;;;10.30;5.95;;;17.60;91.70;;;;;;4998431;28;20478;-80
2021/06/10 04:23:47;;;;;;;7.78;5.68;;;17.60;91.60;;;;;;5015829;28;20036;-80
2021/06/10 04:26:13;;;;;;;8.60;6.10;;;17.60;91.70;;;;;;5015212;28;20100;-80
2021/06/10 04:28:39;;;;;;;8.05;5.43;;;17.60;91.70;;;;;;5015422;28;20084;-80
2021/06/10 04:31:05;;;;;;;8.93;5.65;;;17.70;91.70;;;;;;4997623;28;20030;-80
2021/06/10 04:33:30;;;;;;;9.40;5.97;;;17.60;91.70;;;;;;4997977;28;20037;-80
2021/06/10 04:35:56;;;;;;;9.32;5.60;;;17.70;91.70;;;;;;4997445;28;20533;-81
2021/06/10 04:38:22;;;;;;;7.97;6.07;;;17.70;91.80;;;;;;4981900;28;20049;-81
2021/06/10 04:40:47;;;;;;;8.98;5.90;;;17.60;91.80;;;;;;5015077;28;20025;-81
2021/06/10 04:43:13;;;;;;;9.80;6.10;;;17.70;91.70;;;;;;4997718;28;20026;-81
2021/06/10 04:45:39;;;;;;;9.35;5.45;;;17.70;91.60;;;;;;4997988;28;20030;-81
2021/06/10 04:48:06;;;;;;;8.38;5.97;;;17.80;91.60;;;;;;4997200;28;20475;-81
2021/06/10 04:50:33;;;;;;;7.63;5.70;;;17.70;91.70;;;;;;4997379;28;20037;-81
2021/06/10 04:52:58;;;;;;;9.73;5.90;;;17.80;91.60;;;;;;4997928;28;20463;-81
2021/06/10 04:55:24;;;;;;;8.15;5.90;;;17.80;91.50;;;;;;4997814;28;20026;-81
2021/06/10 04:57:50;;;;;;;8.93;5.80;;;17.90;91.40;;;;;;4997645;28;20136;-81
2021/06/10 05:00:16;;;;;;;9.63;5.65;;;17.90;91.30;;;;;;5007723;28;20034;-81
2021/06/10 05:02:42;;;;;;;8.23;5.72;;;17.90;91.20;;;;;;4997035;28;20038;-82
2021/06/10 05:05:09;;;;;;;7.32;5.45;;;17.90;91.30;;;;;;5014252;28;20029;-81
2021/06/10 05:07:35;;;;;;;11.13;6.03;;;17.90;91.20;;;;;;4997388;28;20050;-82
2021/06/10 05:10:01;;;;;;;7.65;5.55;;;18.00;91.10;;;;;;5013071;28;20088;-82
2021/06/10 05:12:26;;;;;;;8.30;5.55;;;18.00;91.10;;;;;;5015145;28;20033;-81
2021/06/10 05:14:52;;;;;;;7.10;5.63;;;18.00;91.20;;;;;;5014879;28;20022;-82
2021/06/10 05:17:18;;;;;;;8.30;5.95;;;18.00;91.10;;;;;;5013818;28;20501;-82
2021/06/10 05:19:44;;;;;;;7.63;5.45;;;18.00;91.20;;;;;;5013083;28;20026;-82
2021/06/10 05:22:10;;;;;;;7.80;5.70;;;18.10;91.30;;;;;;5012867;28;20057;-81
2021/06/10 05:24:35;;;;;;;8.73;5.45;;;18.10;91.20;;;;;;5013142;28;20391;-81
2021/06/10 05:27:01;;;;;;;9.23;5.82;;;18.10;91.30;;;;;;5012980;28;20030;-82
2021/06/10 05:29:27;;;;;;;7.18;5.68;;;18.10;91.40;;;;;;5013491;28;20026;-81
2021/06/10 05:31:53;;;;;;;8.65;6.22;;;18.10;91.40;;;;;;5014976;28;20025;-81
2021/06/10 05:34:19;;;;;;;9.07;6.55;;;18.10;91.40;;;;;;5016116;28;20026;-82
2021/06/10 05:36:45;;;;;;;11.00;6.15;;;18.10;91.50;;;;;;5016770;28;20030;-81
2021/06/10 05:39:11;;;;;;;9.45;6.50;;;18.10;91.70;;;;;;5015829;28;20478;-82
2021/06/10 05:41:36;;;;;;;10.48;6.65;;;18.10;91.80;;;;;;5033285;28;20041;-82
2021/06/10 05:44:03;;;;;;;10.10;7.05;;;18.20;91.90;;;;;;5032361;28;20394;-83
2021/06/10 05:46:28;;;;;;;10.70;7.72;;;18.20;92.00;;;;;;5032708;28;20502;-83
2021/06/10 05:48:54;;;;;;;10.93;6.45;;;18.20;92.00;;;;;;5015989;28;20034;-83
2021/06/10 05:51:21;;;;;;;10.50;7.32;;;18.30;92.10;;;;;;5033488;28;20029;-83
2021/06/10 05:53:46;;;;;;;9.35;6.82;;;18.30;92.00;;;;;;5034083;28;20032;-83
2021/06/10 05:56:12;;;;;;;10.30;6.60;;;18.40;91.90;;;;;;5033465;28;20025;-81
2021/06/10 05:58:38;;;;;;;10.65;7.57;;;18.40;91.90;;;;;;5016514;28;20026;-81
2021/06/10 06:01:04;;;;;;;9.85;7.13;;;18.40;92.00;;;;;;5033463;28;20028;-81
2021/06/10 06:03:32;;;;;;;9.48;7.18;;;18.40;92.10;;;;;;5016511;28;20052;-81
2021/06/10 06:05:58;;;;;;;10.48;7.45;;;18.50;92.10;;;;;;5012785;28;20041;-85
2021/06/10 06:08:24;;;;;;;10.35;7.13;;;18.60;92.10;;;;;;5013903;28;20062;-83
2021/06/10 06:10:52;;;;;;;15.00;7.10;;;18.60;91.80;;;;;;4996352;28;20117;-83
2021/06/10 06:13:22;;;;;;;10.63;6.78;;;18.70;91.70;;;;;;5013787;28;20038;-83
2021/06/10 06:15:50;;;;;;;11.38;7.15;;;18.70;91.60;;;;;;4996863;28;20029;-83
2021/06/10 06:18:17;;;;;;;9.57;6.65;;;18.70;91.60;;;;;;5013328;28;20026;-82
2021/06/10 06:20:42;;;;;;;12.20;7.28;;;18.70;91.60;;;;;;5013917;28;20109;-82
2021/06/10 06:23:09;;;;;;;9.25;6.65;;;18.70;91.60;;;;;;4995766;28;20188;-81
2021/06/10 06:25:34;;;;;;;11.20;6.68;;;18.70;91.40;;;;;;4995808;28;20100;-82
2021/06/10 06:28:00;;;;;;;10.73;6.80;;;18.80;91.50;;;;;;4995960;28;20462;-86
2021/06/10 06:30:26;;;;;;;10.70;6.40;;;18.80;91.30;;;;;;5013307;28;20092;-82
2021/06/10 06:32:51;;;;;;;11.43;7.18;;;18.90;91.30;;;;;;4996362;28;20084;-82
2021/06/10 06:35:17;;;;;;;10.25;7.47;;;18.90;91.30;;;;;;4996839;28;20032;-83
2021/06/10 06:37:43;;;;;;;8.38;6.10;;;18.90;91.40;;;;;;4999585;28;20386;-83
2021/06/10 06:40:09;;;;;;;9.32;6.18;;;19.00;91.20;;;;;;4998684;28;20470;-81
2021/06/10 06:42:36;;;;;;;8.90;6.47;;;19.00;91.20;;;;;;4999864;28;20466;-80
2021/06/10 06:45:03;;;;;;;9.60;7.20;;;19.10;91.20;;;;;;4999606;28;20034;-88
2021/06/10 06:47:29;;;;;;;10.57;7.20;;;19.10;91.30;;;;;;5000443;28;20026;-82
2021/06/10 06:49:54;;;;;;;9.65;6.78;;;19.10;91.20;;;;;;4999775;28;20382;-82
2021/06/10 06:52:20;;;;;;;9.75;7.43;;;19.20;91.20;;;;;;4999509;28;20128;-82
2021/06/10 06:54:45;;;;;;;12.60;7.07;;;19.20;91.20;;;;;;4999615;28;20087;-81
2021/06/10 06:57:11;;;;;;;10.10;6.63;;;19.30;91.00;;;;;;4999033;28;20025;-82
2021/06/10 06:59:37;;;;;;;10.93;7.63;;;19.40;91.10;;;;;;5016693;28;20455;-82
2021/06/10 07:02:02;;;;;;;13.25;8.38;;;19.40;91.00;;;;;;5016351;28;20378;-85
2021/06/10 07:04:29;;;;;;;12.10;7.70;;;19.40;91.20;;;;;;5016287;28;20037;-82
2021/06/10 07:06:55;;;;;;;10.30;7.47;;;19.40;91.30;;;;;;5016349;28;20033;-82
2021/06/10 07:09:20;;;;;;;12.23;7.57;;;19.40;91.20;;;;;;5034896;28;20145;-82
2021/06/10 07:11:46;;;;;;;11.73;8.20;;;19.50;91.00;;;;;;5036959;28;20355;-82
2021/06/10 07:14:12;;;;;;;14.68;8.38;;;19.50;91.20;;;;;;5036362;28;20026;-83
2021/06/10 07:16:37;;;;;;;13.13;8.05;;;19.50;91.20;;;;;;5037047;28;20025;-81
2021/06/10 07:19:03;;;;;;;11.57;8.00;;;19.60;91.20;;;;;;5018838;28;20033;-87
2021/06/10 07:21:46;;;;;;;13.30;8.40;;;19.60;91.10;;;;;;5036380;28;20405;-82
2021/06/10 07:24:13;;;;;;;14.95;8.60;;;19.60;91.20;;;;;;5036277;28;20083;-82
2021/06/10 07:26:40;;;;;;;17.48;8.55;;;19.70;91.10;;;;;;5036498;28;20033;-82
2021/06/10 07:29:06;;;;;;;12.63;8.43;;;19.70;91.10;;;;;;5018498;28;20413;-86
2021/06/10 07:31:32;;;;;;;13.68;9.02;;;19.80;90.90;;;;;;5018846;28;20026;-82
2021/06/10 07:33:58;;;;;;;13.80;9.18;;;19.80;91.10;;;;;;5018588;28;20029;-82
2021/06/10 07:36:25;;;;;;;15.00;9.07;;;19.90;91.20;;;;;;5018050;28;20578;-83
2021/06/10 07:38:51;;;;;;;12.45;8.98;;;19.90;91.00;;;;;;5018162;28;20475;-82
2021/06/10 07:41:16;;;;;;;15.52;9.52;;;19.90;90.70;;;;;;5035276;28;20101;-82
2021/06/10 07:43:42;;;;;;;16.10;9.82;;;19.90;90.90;;;;;;5012579;28;20167;-80
2021/06/10 07:46:08;;;;;;;15.25;10.02;;;20.00;90.90;;;;;;5032465;28;20053;-82
2021/06/10 07:48:33;;;;;;;15.57;11.13;;;20.00;90.40;;;;;;5048721;28;20026;-81
2021/06/10 07:50:59;;;;;;;16.13;10.52;;;20.10;90.40;;;;;;5021582;28;20025;-83
2021/06/10 07:53:25;;;;;;;17.20;10.88;;;20.10;91.00;;;;;;5008960;28;20037;-80
2021/06/10 07:55:54;;;;;;;17.40;11.30;;;20.20;90.70;;;;;;5006037;28;20396;-80
2021/06/10 07:58:21;;;;;;;21.70;11.77;;;20.30;90.40;;;;;;5021185;28;20033;-80
2021/06/10 08:00:46;;;;;;;21.77;11.68;;;20.30;90.30;;;;;;5008086;28;20382;-82
2021/06/10 08:03:12;;;;;;;19.15;11.98;;;20.30;90.50;;;;;;5015088;28;20032;-81
2021/06/10 08:05:38;;;;;;;19.27;11.10;;;20.40;90.60;;;;;;5014097;28;20072;-85
2021/06/10 08:08:04;;;;;;;17.92;11.10;;;20.40;90.00;;;;;;5016677;28;20118;-87
2021/06/10 08:10:30;;;;;;;17.52;11.80;;;20.40;90.00;;;;;;5015708;28;20017;-82
2021/06/10 08:12:55;;;;;;;17.90;11.80;;;20.50;89.70;;;;;;5014050;28;20032;-84
2021/06/10 08:15:21;;;;;;;18.13;11.68;;;20.60;89.60;;;;;;5032913;28;20041;-80
2021/06/10 08:17:47;;;;;;;17.83;10.93;;;20.50;89.60;;;;;;5017905;28;20029;-81
2021/06/10 08:20:13;;;;;;;17.20;11.10;;;20.50;89.80;;;;;;5017368;28;20477;-78
2021/06/10 08:22:40;;;;;;;18.63;11.35;;;20.60;90.10;;;;;;5016979;28;20030;-78
2021/06/10 08:25:07;;;;;;;15.52;10.93;;;20.60;90.00;;;;;;5013896;28;20029;-87
2021/06/10 08:27:34;;;;;;;17.00;10.85;;;20.70;89.90;;;;;;5013996;28;20076;-78
2021/06/10 08:29:59;;;;;;;15.73;11.00;;;20.70;89.40;;;;;;5032151;28;20032;-79
2021/06/10 08:32:25;;;;;;;17.02;12.05;;;20.70;88.90;;;;;;5023530;28;20025;-79
2021/06/10 08:34:51;;;;;;;19.85;11.93;;;20.80;89.10;;;;;;5016071;28;20032;-78
2021/06/10 08:37:17;;;;;;;16.10;11.07;;;20.80;89.00;;;;;;5026047;28;20029;-81
2021/06/10 08:39:42;;;;;;;16.52;11.07;;;20.90;89.40;;;;;;5024594;28;20030;-79
2021/06/10 08:42:08;;;;;;;18.67;12.00;;;20.90;89.20;;;;;;5053773;28;20104;-84
2021/06/10 08:44:37;;;;;;;21.75;12.23;;;21.00;88.80;;;;;;5036547;28;20041;-80
2021/06/10 08:47:05;;;;;;;16.80;12.02;;;21.00;87.80;;;;;;5032486;28;20032;-78
2021/06/10 08:49:31;;;;;;;19.73;11.75;;;21.10;87.60;;;;;;5005677;28;20021;-79
2021/06/10 08:51:57;;;;;;;19.50;13.35;;;21.10;87.60;;;;;;5034488;28;20083;-79
2021/06/10 08:54:22;;;;;;;19.77;12.80;;;21.10;87.70;;;;;;5039653;28;20036;-79
2021/06/10 08:56:48;;;;;;;19.70;12.13;;;21.10;87.80;;;;;;5023848;28;20037;-82
2021/06/10 08:59:14;;;;;;;18.70;12.80;;;21.10;87.60;;;;;;5009861;28;20029;-81
2021/06/10 09:01:43;;;;;;;18.17;12.88;;;21.10;86.70;;;;;;5010387;28;20058;-84
2021/06/10 09:04:09;;;;;;;18.13;11.77;;;21.10;87.30;;;;;;5016315;28;20034;-85
2021/06/10 09:06:47;;;;;;;15.77;11.32;;;21.20;87.30;;;;;;5030635;28;20406;-78
2021/06/10 09:09:13;;;;;;;18.60;12.02;;;21.20;86.50;;;;;;5008061;28;20080;-79
2021/06/10 09:11:39;;;;;;;17.55;11.98;;;21.20;87.40;;;;;;5016150;28;20470;-78
2021/06/10 09:14:09;;;;;;;18.17;12.35;;;21.30;87.50;;;;;;5033856;28;20021;-78
2021/06/10 09:16:36;;;;;;;17.38;11.95;;;21.30;87.30;;;;;;5015279;28;20128;-78
2021/06/10 09:19:08;;;;;;;17.15;11.35;;;21.30;87.40;;;;;;5012662;28;20387;-79
2021/06/10 09:21:38;;;;;;;18.08;12.20;;;21.20;87.30;;;;;;5013744;28;20025;-78
2021/06/10 09:24:35;;;;;;;18.60;12.13;;;21.40;87.30;;;;;;5012488;28;20034;-79
2021/06/10 09:27:09;;;;;;;21.35;13.18;;;21.40;87.30;;;;;;5014213;28;20025;-81
2021/06/10 09:29:47;;;;;;;20.80;13.32;;;21.50;87.30;;;;;;5005916;28;20025;-81
2021/06/10 09:32:30;;;;;;;18.88;12.02;;;21.50;87.40;;;;;;4995430;28;20489;-79
2021/06/10 09:34:57;;;;;;;18.90;12.82;;;21.50;88.30;;;;;;4994973;28;20062;-79
2021/06/10 09:37:32;;;;;;;19.17;11.77;;;21.60;87.90;;;;;;5024901;28;20033;-82
2021/06/10 09:39:59;;;;;;;18.30;11.50;;;21.70;87.70;;;;;;5031742;28;20475;-84
2021/06/10 09:42:45;;;;;;;16.77;11.73;;;21.80;86.70;;;;;;5014867;28;20051;-84
2021/06/10 09:45:13;;;;;;;16.58;11.50;;;21.90;86.80;;;;;;5015603;28;20037;-85
2021/06/10 09:47:44;;;;;;;15.95;10.85;;;21.80;87.00;;;;;;5016265;28;20466;-78
2021/06/10 09:50:29;;;;;;;18.40;12.07;;;21.90;87.10;;;;;;5015844;28;20036;-89
2021/06/10 09:53:02;;;;;;;15.82;11.65;;;22.00;86.40;;;;;;5015840;28;20474;-78
2021/06/10 09:55:43;;;;;;;14.75;11.10;;;22.00;85.90;;;;;;5015426;28;20049;-82
2021/06/10 09:58:12;;;;;;;16.40;11.68;;;21.90;85.50;;;;;;5016145;28;20025;-90
2021/06/10 10:00:59;;;;;;;16.55;10.50;;;22.00;84.00;;;;;;5012818;28;20425;-80
2021/06/10 10:03:25;;;;;;;14.93;10.63;;;22.00;83.80;;;;;;5012405;28;20037;-77
2021/06/10 10:05:52;;;;;;;18.02;10.63;;;22.00;83.80;;;;;;5031356;28;20513;-79
2021/06/10 10:08:18;;;;;;;16.35;10.75;;;22.00;83.30;;;;;;5005516;28;20046;-79
2021/06/10 10:10:45;;;;;;;14.52;9.88;;;22.00;82.80;;;;;;5012597;28;20478;-81
2021/06/10 10:13:15;;;;;;;15.15;10.38;;;22.10;83.60;;;;;;4996050;28;20088;-87
2021/06/10 10:15:41;;;;;;;17.20;11.80;;;22.10;83.20;;;;;;4996877;28;20084;-82
2021/06/10 10:18:07;;;;;;;19.45;12.80;;;22.10;83.70;;;;;;4996578;28;20026;-82
2021/06/10 10:20:33;;;;;;;17.30;12.48;;;22.20;82.90;;;;;;4995971;28;20307;-82
2021/06/10 10:22:59;;;;;;;12.75;10.07;;;22.30;83.50;;;;;;4996204;28;20026;-81
2021/06/10 10:25:25;;;;;;;13.77;9.88;;;22.30;82.50;;;;;;4992337;28;20081;-79
2021/06/10 10:27:51;;;;;;;15.23;10.75;;;22.30;82.70;;;;;;4992786;28;20034;-80
2021/06/10 10:30:21;;;;;;;17.55;10.98;;;22.30;83.30;;;;;;4995580;28;20030;-85
2021/06/10 10:32:47;;;;;;;15.00;10.50;;;22.40;81.70;;;;;;5012492;28;20057;-79
2021/06/10 10:35:22;;;;;;;64.10;39.28;;;22.50;81.30;;;;;;5012663;28;20026;-85
2021/06/10 10:37:52;;;;;;;29.58;19.88;;;22.50;81.10;;;;;;4995509;28;20474;-79
2021/06/10 10:40:27;;;;;;;16.60;11.47;;;22.50;81.00;;;;;;4995599;28;20072;-83
2021/06/10 10:43:09;;;;;;;14.68;10.15;;;22.50;81.10;;;;;;4996496;28;20474;-79
2021/06/10 10:45:35;;;;;;;12.52;9.77;;;22.50;81.40;;;;;;4995004;28;20041;-82
2021/06/10 10:48:04;;;;;;;13.70;10.32;;;22.60;79.80;;;;;;5012789;28;20029;-81
2021/06/10 10:50:42;;;;;;;14.02;9.77;;;22.60;79.80;;;;;;4994973;28;20113;-83
2021/06/10 10:53:18;;;;;;;13.50;8.68;;;22.60;79.10;;;;;;4991957;28;20030;-80
2021/06/10 10:55:45;;;;;;;17.50;9.50;;;22.70;79.00;;;;;;5013827;28;20068;-80
2021/06/10 10:58:20;;;;;;;12.98;8.80;;;22.70;79.00;;;;;;4996026;28;20026;-81
2021/06/10 11:00:56;;;;;;;13.75;8.95;;;22.70;78.10;;;;;;5010261;28;20035;-84
2021/06/10 11:03:42;;;;;;;13.98;8.90;;;22.70;78.10;;;;;;4995872;28;20046;-83
2021/06/10 11:06:26;;;;;;;12.35;9.30;;;22.80;78.90;;;;;;4989609;28;20073;-84
2021/06/10 11:09:13;;;;;;;13.15;9.98;;;22.90;78.90;;;;;;4986913;28;20053;-81
2021/06/10 11:11:59;;;;;;;13.93;9.35;;;23.00;78.80;;;;;;4998791;28;20049;-84
2021/06/10 11:14:46;;;;;;;12.18;9.27;;;23.10;79.00;;;;;;5006446;28;20501;-83
2021/06/10 11:17:30;;;;;;;14.48;9.55;;;23.10;77.20;;;;;;5016493;28;20084;-80
2021/06/10 11:20:16;;;;;;;13.15;9.90;;;23.20;76.90;;;;;;5013030;28;20096;-80
2021/06/10 11:22:48;;;;;;;14.70;9.82;;;23.30;76.70;;;;;;5023982;28;20042;-81
2021/06/10 11:25:46;;;;;;;12.00;9.23;;;23.40;75.60;;;;;;5033044;28;20391;-84
2021/06/10 11:28:19;;;;;;;11.30;8.43;;;23.50;74.80;;;;;;5013813;28;20025;-82
2021/06/10 11:30:46;;;;;;;11.90;8.73;;;23.50;72.60;;;;;;5018886;28;20044;-81
2021/06/10 11:33:18;;;;;;;11.23;8.15;;;23.60;73.60;;;;;;5007317;28;20053;-81
2021/06/10 11:36:03;;;;;;;10.50;8.20;;;23.60;73.40;;;;;;4996519;28;20022;-82
2021/06/10 11:38:37;;;;;;;9.80;7.95;;;23.70;73.40;;;;;;5025858;28;20037;-82
2021/06/10 11:41:15;;;;;;;11.30;8.10;;;23.70;72.70;;;;;;5015178;28;20021;-81
2021/06/10 11:43:44;;;;;;;9.75;6.97;;;23.80;72.80;;;;;;5012530;28;20421;-82
2021/06/10 11:46:15;;;;;;;8.93;6.70;;;23.80;69.50;;;;;;5012911;28;20034;-80
2021/06/10 11:48:44;;;;;;;8.80;6.88;;;24.00;66.90;;;;;;5014258;28;20029;-81
2021/06/10 11:51:20;;;;;;;7.22;6.25;;;24.00;67.20;;;;;;5007962;28;20038;-81
2021/06/10 11:53:47;;;;;;;10.35;6.50;;;24.10;63.40;;;;;;5030479;28;20021;-81
2021/06/10 11:56:13;;;;;;;9.60;6.45;;;24.10;62.90;;;;;;5018798;28;20045;-80
2021/06/10 11:58:39;;;;;;;7.18;6.15;;;24.30;64.70;;;;;;5004795;28;20097;-79
2021/06/10 12:01:12;;;;;;;6.90;5.85;;;24.30;65.70;;;;;;5013943;28;20018;-81
2021/06/10 12:03:39;;;;;;;8.27;5.95;;;24.50;64.80;;;;;;5035764;28;20029;-81
2021/06/10 12:06:08;;;;;;;8.57;5.70;;;24.50;63.60;;;;;;5029862;28;20042;-81
2021/06/10 12:08:36;;;;;;;6.45;5.15;;;24.60;63.20;;;;;;5003975;28;20058;-81
2021/06/10 12:11:07;;;;;;;7.38;6.25;;;24.70;61.60;;;;;;5015049;28;20061;-81
2021/06/10 12:13:34;;;;;;;7.43;6.43;;;24.80;61.30;;;;;;5003049;28;20034;-81
2021/06/10 12:16:08;;;;;;;8.82;6.85;;;24.90;62.30;;;;;;4999389;28;20080;-81
2021/06/10 12:18:35;;;;;;;8.48;7.10;;;25.00;63.20;;;;;;4992225;28;20022;-83
2021/06/10 12:21:06;;;;;;;10.93;7.70;;;25.10;62.80;;;;;;5033255;28;20030;-81
2021/06/10 12:23:38;;;;;;;9.18;6.80;;;25.10;63.20;;;;;;5032049;28;20116;-83
2021/06/10 12:26:08;;;;;;;8.38;7.22;;;25.30;65.20;;;;;;5019078;28;20065;-82
2021/06/10 12:28:55;;;;;;;8.77;7.50;;;25.40;63.30;;;;;;5029800;28;20513;-82
2021/06/10 12:31:36;;;;;;;9.75;7.78;;;25.50;62.30;;;;;;5014900;28;20037;-84
2021/06/10 12:34:07;;;;;;;8.07;7.10;;;25.60;63.20;;;;;;4998110;28;20133;-82
2021/06/10 12:36:42;;;;;;;7.77;6.33;;;25.80;62.80;;;;;;4997740;28;20120;-81
2021/06/10 12:39:08;;;;;;;8.77;6.85;;;25.90;60.80;;;;;;5005504;28;20041;-82
2021/06/10 12:41:42;;;;;;;8.60;7.35;;;26.00;60.50;;;;;;5021295;28;20021;-84
2021/06/10 12:44:34;;;;;;;9.32;7.38;;;26.10;60.20;;;;;;5028021;28;20482;-82
2021/06/10 12:47:02;;;;;;;11.75;8.10;;;26.30;60.30;;;;;;5023424;28;20466;-83
2021/06/10 12:49:40;;;;;;;11.00;7.80;;;26.40;61.30;;;;;;5019006;28;20026;-83